• Join FlightAware (Why Join?)
  • Login
  • US Flag 
11:59PM EDT


 

Airport Tracker/Info


-or-


 

Live Flight TrackerFlight Track Log ✈ N778CA ✈ 20-Apr-2013 ✈ KJQF - KGMU

Flight Track Log - Related Links

Times and Time Zones

All times are in EDT time to prevent confusion due to time zone crossing. See the N778CA flight status page for this flight to view local times or setup timezone preferences in your user account.

Time Position Orientation Groundspeed Altitude Reporting Facility
EDT Latitude Longitude Course Direction KTS MPH feet Rate Location/Type
11:27AM 35.4039 -80.7061 North 142 163 1,200  Level Atlanta Center
11:28AM 35.4225 -80.7028 North 120 138 1,800 960 Climbing Atlanta Center
11:29AM 35.4597 -80.6911 14° North 113 130 2,900 840 Climbing Atlanta Center
11:30AM 35.4792 -80.7081 325° Northwest 119 137 3,700 540 Climbing Atlanta Center
11:31AM 35.4761 -80.7514 265° West 136 157 4,000 120 Climbing Atlanta Center
11:32AM 35.4756 -80.8078 269° West 145 167 4,000  Level Atlanta Center
11:33AM 35.4769 -80.8611 272° West 156 180 4,000  Level Atlanta Center
11:34AM 35.4739 -80.9072 265° West 150 173 4,000  Level Atlanta Center
11:35AM 35.4733 -80.9658 269° West 148 170 4,000  Level Atlanta Center
11:36AM 35.4725 -81.0169 269° West 145 167 4,000  Level Atlanta Center
11:37AM 35.4675 -81.0731 264° West 155 178 4,000  Level Atlanta Center
11:38AM 35.4394 -81.1175 232° Southwest 161 185 4,000  Level Atlanta Center
11:39AM 35.4217 -81.1614 244° Southwest 153 176 4,000  Level Atlanta Center
11:40AM 35.3978 -81.2081 238° Southwest 154 177 4,000  Level Atlanta Center
11:41AM 35.3800 -81.2494 242° Southwest 153 176 4,000  Level Atlanta Center
11:42AM 35.3578 -81.2911 237° Southwest 153 176 4,000  Level Atlanta Center
11:43AM 35.3381 -81.3350 241° Southwest 149 171 4,000  Level Atlanta Center
11:44AM 35.3158 -81.3764 237° Southwest 151 174 4,000  Level Atlanta Center
11:45AM 35.2961 -81.4253 244° Southwest 153 176 4,000  Level Atlanta Center
11:46AM 35.2719 -81.4719 238° Southwest 156 180 4,000  Level Atlanta Center
11:47AM 35.2481 -81.5211 239° Southwest 154 177 4,000  Level Atlanta Center
11:48AM 35.2261 -81.5700 241° Southwest 152 175 4,000  Level Atlanta Center
11:49AM 35.2039 -81.6139 238° Southwest 156 180 4,000  Level Atlanta Center
11:50AM 35.1839 -81.6578 241° Southwest 150 173 4,000  Level Atlanta Center
11:52AM 35.1458 -81.7342 239° Southwest 149 171 4,000  Level FAA TRACON SMA TRACON (SMA)
11:52AM 35.1392 -81.7475 239° Southwest 149 171 4,000  Level FAA TRACON SMA TRACON (SMA)
11:53AM 35.1308 -81.7636 238° Southwest 147 169 4,000  Level FAA TRACON SMA TRACON (SMA)
11:53AM 35.1206 -81.7736 219° Southwest 157 181 4,000  Level FAA TRACON SMA TRACON (SMA)
11:53AM 35.1125 -81.7850 229° Southwest 145 167 4,000  Level FAA TRACON SMA TRACON (SMA)
11:54AM 35.1011 -81.7992 226° Southwest 151 174 4,000  Level FAA TRACON SMA TRACON (SMA)
11:54AM 35.0917 -81.8108 225° Southwest 153 176 4,000  Level FAA TRACON SMA TRACON (SMA)
11:54AM 35.0825 -81.8222 225° Southwest 153 176 4,000  Level FAA TRACON SMA TRACON (SMA)
11:55AM 35.0742 -81.8336 228° Southwest 150 173 4,000  Level FAA TRACON SMA TRACON (SMA)
11:55AM 35.0742 -81.8336 195° South 150 173 4,000  Level FAA TRACON SMA TRACON (SMA)
11:57AM 35.0515 -81.8826 241° Southwest  Level FlightAware Approximate
12:04PM 34.9306 -82.1425 240° Southwest  Level FlightAware Approximate
12:05PM 34.9132 -82.1795 240° Southwest  Level FlightAware Approximate
12:06PM 34.8959 -82.2166 240° Southwest  Level FlightAware Approximate
12:07PM 34.8786 -82.2536 240° Southwest  Level FlightAware Approximate
12:08PM 34.8612 -82.2906 240° Southwest  Level FlightAware Approximate
12:09PM 34.8438 -82.3276 240° Southwest  Level FlightAware Approximate
12:10PM 34.8333 -82.3500 241° Southwest  Level FlightAware Approximate
12:11PM 34.8479 -82.3500 241° Southwest  Level Estimated
12:12PM 34.8479 -82.3500 241° Southwest  Level Estimated
12:13PM 34.8479 -82.3500 241° Southwest  Level Estimated
12:14PM 34.8479 -82.3500 241° Southwest  Level Estimated
12:15PM 34.8479 -82.3500 241° Southwest  Level Estimated